createdAt,value
2022-08-03T00:01:36.153Z,101238.47
2022-08-03T00:04:04.407Z,101240.38
2022-08-03T00:06:36.814Z,101237.56
2022-08-03T00:09:05.968Z,101239.81
2022-08-03T00:11:35.880Z,101230.69
2022-08-03T00:14:04.207Z,101230.19
2022-08-03T00:16:32.318Z,101225.09
2022-08-03T00:19:00.679Z,101229.25
2022-08-03T00:21:29.164Z,101226.81
2022-08-03T00:23:57.222Z,101219.09
2022-08-03T00:26:25.189Z,101224.13
2022-08-03T00:28:54.544Z,101217.38
2022-08-03T00:31:40.093Z,101206.84
2022-08-03T00:34:10.540Z,101197.63
2022-08-03T00:36:41.233Z,101205.16
2022-08-03T00:39:09.610Z,101201.63
2022-08-03T00:41:37.627Z,101208.09
2022-08-03T00:44:15.749Z,101191.13
2022-08-03T00:46:43.797Z,101204.09
2022-08-03T00:49:11.841Z,101208.00
2022-08-03T00:51:40.087Z,101210.09
2022-08-03T00:54:08.132Z,101204.97
2022-08-03T00:56:36.165Z,101205.59
2022-08-03T00:59:04.891Z,101211.69
2022-08-03T01:01:34.399Z,101211.09
2022-08-03T01:04:02.421Z,101212.53
2022-08-03T01:06:35.767Z,101196.22
2022-08-03T01:09:09.166Z,101210.63
2022-08-03T01:11:59.798Z,101208.47
2022-08-03T01:14:35.351Z,101203.13
2022-08-03T01:17:13.444Z,101208.56
2022-08-03T01:19:47.549Z,101198.66
2022-08-03T01:22:47.490Z,101203.91
2022-08-03T01:25:22.370Z,101211.78
2022-08-03T01:27:58.545Z,101207.03
2022-08-03T01:30:30.495Z,101210.81
2022-08-03T01:33:02.536Z,101203.03
2022-08-03T01:35:38.303Z,101208.66
2022-08-03T01:38:10.314Z,101210.34
2022-08-03T01:40:39.118Z,101209.47
2022-08-03T01:43:07.954Z,101210.13
2022-08-03T01:45:38.279Z,101210.75
2022-08-03T01:48:07.027Z,101206.09
2022-08-03T01:50:35.841Z,101200.34
2022-08-03T01:53:03.995Z,101200.22
2022-08-03T01:55:33.337Z,101200.72
2022-08-03T01:58:05.365Z,101199.22
2022-08-03T02:00:35.269Z,101201.78
2022-08-03T02:03:06.668Z,101195.22
2022-08-03T02:05:35.712Z,101194.69
2022-08-03T02:08:05.180Z,101190.50
2022-08-03T02:10:35.193Z,101198.19
2022-08-03T02:13:05.490Z,101199.69
2022-08-03T02:15:34.018Z,101197.91
2022-08-03T02:18:04.828Z,101201.66
2022-08-03T02:20:36.396Z,101191.38
2022-08-03T02:23:04.558Z,101195.19
2022-08-03T02:25:33.727Z,101196.09
2022-08-03T02:28:08.203Z,101194.00
2022-08-03T02:30:39.149Z,101186.44
2022-08-03T02:33:13.255Z,101184.09
2022-08-03T02:35:41.608Z,101184.16
2022-08-03T02:38:11.588Z,101183.88
2022-08-03T02:40:40.463Z,101175.59
2022-08-03T02:43:10.443Z,101174.72
2022-08-03T02:45:45.648Z,101180.56
2022-08-03T02:48:17.656Z,101187.34
2022-08-03T02:50:46.325Z,101169.25
2022-08-03T02:53:15.056Z,101173.06
2022-08-03T02:55:45.952Z,101174.78
2022-08-03T02:58:15.225Z,101180.44
2022-08-03T03:00:45.556Z,101176.97
2022-08-03T03:03:15.671Z,101178.19
2022-08-03T03:05:54.712Z,101180.94
2022-08-03T03:08:28.410Z,101176.50
2022-08-03T03:10:58.196Z,101177.88
2022-08-03T03:13:26.690Z,101176.00
2022-08-03T03:15:55.947Z,101184.59
2022-08-03T03:18:25.781Z,101180.97
2022-08-03T03:20:54.589Z,101184.91
2022-08-03T03:23:23.193Z,101177.91
2022-08-03T03:25:51.581Z,101177.91
2022-08-03T03:28:19.683Z,101188.13
2022-08-03T03:30:52.706Z,101189.00
2022-08-03T03:33:21.706Z,101180.78
2022-08-03T03:35:51.814Z,101172.34
2022-08-03T03:38:20.328Z,101179.84
2022-08-03T03:40:48.318Z,101180.84
2022-08-03T03:43:18.570Z,101184.78
2022-08-03T03:45:47.012Z,101188.75
2022-08-03T03:48:15.097Z,101180.34
2022-08-03T03:50:43.413Z,101193.56
2022-08-03T03:53:13.730Z,101183.91
2022-08-03T03:55:58.925Z,101182.75
2022-08-03T03:58:31.328Z,101183.59
2022-08-03T04:00:59.417Z,101177.06
2022-08-03T04:03:27.486Z,101179.25
2022-08-03T04:06:12.751Z,101182.50
2022-08-03T04:09:14.101Z,101177.88
2022-08-03T04:11:44.089Z,101177.66
2022-08-03T04:14:14.183Z,101173.88
2022-08-03T04:16:44.298Z,101180.72
2022-08-03T04:19:19.671Z,101179.44
2022-08-03T04:21:52.972Z,101169.44
2022-08-03T04:24:27.323Z,101183.16
2022-08-03T04:26:56.201Z,101182.00
2022-08-03T04:29:25.343Z,101177.66
2022-08-03T04:31:55.699Z,101179.84
2022-08-03T04:34:23.813Z,101180.16
2022-08-03T04:36:54.972Z,101180.66
2022-08-03T04:39:28.039Z,101172.13
2022-08-03T04:42:08.407Z,101186.88
2022-08-03T04:44:39.158Z,101185.94
2022-08-03T04:47:07.501Z,101180.97
2022-08-03T04:49:37.882Z,101184.19
2022-08-03T04:52:06.847Z,101188.09
2022-08-03T04:54:42.555Z,101184.09
2022-08-03T04:57:21.971Z,101193.16
2022-08-03T04:59:54.762Z,101186.13
2022-08-03T05:02:26.323Z,101188.50
2022-08-03T05:04:54.316Z,101184.88
2022-08-03T05:07:25.152Z,101192.03
2022-08-03T05:10:01.365Z,101195.22
2022-08-03T05:12:33.078Z,101192.78
2022-08-03T05:15:01.511Z,101195.28
2022-08-03T05:17:29.929Z,101202.81
2022-08-03T05:19:58.059Z,101195.47
2022-08-03T05:22:25.996Z,101198.41
2022-08-03T05:24:55.456Z,101198.72
2022-08-03T05:27:23.398Z,101204.81
2022-08-03T05:29:52.042Z,101200.66
2022-08-03T05:32:20.439Z,101200.81
2022-08-03T05:34:48.523Z,101201.28
2022-08-03T05:37:16.491Z,101201.22
2022-08-03T05:39:44.449Z,101193.91
2022-08-03T05:42:16.940Z,101185.38
2022-08-03T05:44:45.113Z,101189.19
2022-08-03T05:47:13.248Z,101191.34
2022-08-03T05:49:41.326Z,101192.63
2022-08-03T05:52:18.057Z,101181.97
2022-08-03T05:54:55.590Z,101178.25
2022-08-03T05:57:27.230Z,101171.91
2022-08-03T05:59:58.319Z,101180.13
2022-08-03T06:02:27.126Z,101172.22
2022-08-03T06:04:55.178Z,101178.38
2022-08-03T06:07:23.203Z,101182.63
2022-08-03T06:10:36.725Z,101181.53
2022-08-03T06:12:41.575Z,101187.91
2022-08-03T06:15:11.677Z,101187.75
2022-08-03T06:17:47.404Z,101184.31
2022-08-03T06:20:17.771Z,101184.81
2022-08-03T06:22:51.159Z,101191.06
2022-08-03T06:25:28.230Z,101182.69
2022-08-03T06:27:57.903Z,101193.22
2022-08-03T06:30:28.460Z,101190.78
2022-08-03T06:32:56.649Z,101187.44
2022-08-03T06:35:24.823Z,101198.81
2022-08-03T06:37:53.167Z,101190.19
2022-08-03T06:40:28.563Z,101186.00
2022-08-03T06:43:01.126Z,101193.31
2022-08-03T06:45:31.762Z,101195.84
2022-08-03T06:48:04.042Z,101190.84
2022-08-03T06:50:32.264Z,101199.84
2022-08-03T06:53:00.707Z,101206.91
2022-08-03T06:55:29.151Z,101198.81
2022-08-03T06:58:00.052Z,101209.06
2022-08-03T07:00:34.498Z,101197.75
2022-08-03T07:03:02.570Z,101194.59
2022-08-03T07:05:33.511Z,101205.25
2022-08-03T07:08:03.783Z,101208.66
2022-08-03T07:10:31.775Z,101207.44
2022-08-03T07:13:01.267Z,101218.28
2022-08-03T07:15:54.265Z,101214.03
2022-08-03T07:18:29.134Z,101222.34
2022-08-03T07:20:58.194Z,101213.81
2022-08-03T07:23:26.568Z,101217.00
2022-08-03T07:25:55.094Z,101220.19
2022-08-03T07:28:24.486Z,101229.78
2022-08-03T07:30:52.663Z,101218.66
2022-08-03T07:33:23.787Z,101213.50
2022-08-03T07:35:51.879Z,101216.03
2022-08-03T07:38:21.237Z,101223.66
2022-08-03T07:40:49.715Z,101218.81
2022-08-03T07:43:17.835Z,101215.53
2022-08-03T07:45:51.429Z,101210.50
2022-08-03T07:48:19.897Z,101212.34
2022-08-03T07:50:55.793Z,101222.59
2022-08-03T07:53:25.426Z,101216.56
2022-08-03T07:56:02.998Z,101218.91
2022-08-03T07:58:39.119Z,101206.06
2022-08-03T08:01:09.055Z,101215.66
2022-08-03T08:03:52.338Z,101219.63
2022-08-03T08:06:23.698Z,101211.38
2022-08-03T08:09:02.435Z,101216.53
2022-08-03T08:11:30.699Z,101217.97
2022-08-03T08:13:58.753Z,101220.72
2022-08-03T08:16:32.502Z,101204.97
2022-08-03T08:19:08.194Z,101220.94
2022-08-03T08:21:53.533Z,101219.88
2022-08-03T08:24:30.442Z,101213.56
2022-08-03T08:27:00.167Z,101217.44
2022-08-03T08:29:28.542Z,101207.72
2022-08-03T08:31:58.128Z,101227.25
2022-08-03T08:34:29.395Z,101211.50
2022-08-03T08:37:00.504Z,101215.16
2022-08-03T08:39:35.563Z,101216.53
2022-08-03T08:42:05.281Z,101211.22
2022-08-03T08:44:36.351Z,101212.84
2022-08-03T08:47:05.927Z,101217.56
2022-08-03T08:49:39.176Z,101201.56
2022-08-03T08:52:25.126Z,101201.81
2022-08-03T08:55:04.556Z,101213.59
2022-08-03T08:57:48.184Z,101211.63
2022-08-03T09:00:23.444Z,101215.72
2022-08-03T09:02:53.210Z,101215.47
2022-08-03T09:05:35.748Z,101216.63
2022-08-03T09:08:22.207Z,101225.84
2022-08-03T09:10:56.784Z,101222.06
2022-08-03T09:13:25.194Z,101217.78
2022-08-03T09:16:14.630Z,101216.38
2022-08-03T09:18:45.658Z,101222.88
2022-08-03T09:21:33.254Z,101207.50
2022-08-03T09:24:20.669Z,101211.16
2022-08-03T09:26:59.834Z,101214.50
2022-08-03T09:29:30.231Z,101213.00
2022-08-03T09:32:05.442Z,101218.34
2022-08-03T09:34:41.841Z,101231.97
2022-08-03T09:37:24.000Z,101219.59
2022-08-03T09:40:31.585Z,101205.88
2022-08-03T09:43:02.191Z,101219.97
2022-08-03T09:45:41.928Z,101221.53
2022-08-03T09:48:38.764Z,101217.19
2022-08-03T09:51:13.397Z,101216.81
2022-08-03T09:54:17.537Z,101217.53
2022-08-03T09:56:50.254Z,101209.41
2022-08-03T09:59:26.088Z,101213.44
2022-08-03T10:01:58.876Z,101201.59
2022-08-03T10:04:30.032Z,101201.00
2022-08-03T10:07:08.014Z,101200.72
2022-08-03T10:09:38.372Z,101204.78
2022-08-03T10:12:14.240Z,101196.50
2022-08-03T10:14:58.034Z,101199.31
2022-08-03T10:17:29.661Z,101200.63
2022-08-03T10:20:04.179Z,101208.78
2022-08-03T10:22:43.724Z,101198.44
2022-08-03T10:25:14.043Z,101195.03
2022-08-03T10:27:55.797Z,101193.09
2022-08-03T10:30:26.275Z,101191.88
2022-08-03T10:32:58.292Z,101197.22
2022-08-03T10:35:28.409Z,101189.91
2022-08-03T10:38:18.682Z,101183.53
2022-08-03T10:40:49.969Z,101199.41
2022-08-03T10:43:47.181Z,101193.38
2022-08-03T10:46:22.257Z,101191.41
2022-08-03T10:48:52.570Z,101189.13
2022-08-03T10:51:33.422Z,101191.81
2022-08-03T10:54:02.938Z,101176.94
2022-08-03T10:57:12.390Z,101189.63
2022-08-03T11:00:03.917Z,101191.50
2022-08-03T11:03:10.316Z,101185.88
2022-08-03T11:05:48.375Z,101184.47
2022-08-03T11:08:30.824Z,101196.25
2022-08-03T11:11:28.794Z,101185.13
2022-08-03T11:14:18.416Z,101186.94
2022-08-03T11:16:49.952Z,101178.66
2022-08-03T11:19:27.577Z,101183.75
2022-08-03T11:22:11.265Z,101180.75
2022-08-03T11:25:53.401Z,101179.69
2022-08-03T11:28:28.926Z,101178.66
2022-08-03T11:31:01.780Z,101178.69
2022-08-03T11:33:39.603Z,101184.88
2022-08-03T11:36:44.381Z,101182.22
2022-08-03T11:40:02.835Z,101184.84
2022-08-03T11:43:02.194Z,101181.38
2022-08-03T11:46:03.837Z,101180.75
2022-08-03T11:49:25.521Z,101182.56
2022-08-03T11:51:57.511Z,101180.56
2022-08-03T11:59:18.753Z,101181.72
2022-08-03T12:00:44.774Z,101179.44
2022-08-03T12:03:28.953Z,101189.22
2022-08-03T12:05:58.400Z,101177.00
2022-08-03T12:08:50.552Z,101178.34
2022-08-03T12:12:00.425Z,101168.28
2022-08-03T12:14:48.538Z,101174.41
2022-08-03T12:17:23.294Z,101170.78
2022-08-03T12:19:59.344Z,101173.03
2022-08-03T12:23:37.993Z,101165.97
2022-08-03T12:25:54.926Z,101175.53
2022-08-03T12:28:36.819Z,101166.09
2022-08-03T12:31:13.979Z,101166.13
2022-08-03T12:34:00.757Z,101162.13
2022-08-03T12:36:33.103Z,101162.75
2022-08-03T12:39:08.477Z,101173.50
2022-08-03T12:41:38.316Z,101155.56
2022-08-03T12:44:10.500Z,101166.63
2022-08-03T12:46:47.743Z,101155.28
2022-08-03T12:49:23.770Z,101155.88
2022-08-03T12:52:07.467Z,101163.31
2022-08-03T12:54:43.452Z,101158.16
2022-08-03T12:57:16.354Z,101164.56
2022-08-03T12:59:53.532Z,101149.50
2022-08-03T13:02:33.092Z,101155.69
2022-08-03T13:05:38.802Z,101160.25
2022-08-03T13:08:25.730Z,101163.00
2022-08-03T13:10:58.280Z,101166.28
2022-08-03T13:13:39.971Z,101148.91
2022-08-03T13:16:08.156Z,101160.06
2022-08-03T13:18:58.515Z,101152.50
2022-08-03T13:22:03.275Z,101156.16
2022-08-03T13:24:52.509Z,101149.38
2022-08-03T13:28:04.120Z,101157.97
2022-08-03T13:30:11.890Z,101152.75
2022-08-03T13:32:40.073Z,101147.78
2022-08-03T13:35:09.239Z,101155.63
2022-08-03T13:37:40.392Z,101151.63
2022-08-03T13:40:11.817Z,101147.03
2022-08-03T13:42:56.913Z,101149.44
2022-08-03T13:45:27.641Z,101144.63
2022-08-03T13:48:08.019Z,101144.69
2022-08-03T13:51:02.495Z,101138.66
2022-08-03T13:53:35.549Z,101136.50
2022-08-03T13:56:13.910Z,101134.72
2022-08-03T13:58:46.685Z,101133.09
2022-08-03T14:01:22.727Z,101134.81
2022-08-03T14:04:06.209Z,101124.06
2022-08-03T14:07:21.731Z,101130.31
2022-08-03T14:09:57.397Z,101131.06
2022-08-03T14:12:51.077Z,101126.25
2022-08-03T14:15:19.629Z,101120.75
2022-08-03T14:17:49.898Z,101124.47
2022-08-03T14:20:36.712Z,101126.38
2022-08-03T14:23:09.885Z,101116.03
2022-08-03T14:25:44.475Z,101128.69
2022-08-03T14:28:37.807Z,101127.47
2022-08-03T14:32:11.550Z,101121.94
2022-08-03T14:34:13.135Z,101121.00
2022-08-03T14:36:52.064Z,101127.69
2022-08-03T14:39:24.470Z,101121.69
2022-08-03T14:41:59.766Z,101125.88
2022-08-03T14:44:34.425Z,101115.53
2022-08-03T14:47:05.297Z,101119.28
2022-08-03T14:50:37.186Z,101133.84
2022-08-03T14:52:23.783Z,101127.38
2022-08-03T14:54:51.843Z,101121.28
2022-08-03T14:57:21.625Z,101120.03
2022-08-03T14:59:56.208Z,101109.88
2022-08-03T15:02:25.901Z,101103.81
2022-08-03T15:04:54.127Z,101104.47
2022-08-03T15:07:30.657Z,101105.00
2022-08-03T15:09:59.699Z,101110.66
2022-08-03T15:12:43.433Z,101101.06
2022-08-03T15:15:15.882Z,101116.28
2022-08-03T15:18:00.133Z,101110.34
2022-08-03T15:20:42.985Z,101091.03
2022-08-03T15:23:17.928Z,101094.31
2022-08-03T15:26:03.894Z,101109.25
2022-08-03T15:28:37.279Z,101108.41
2022-08-03T15:31:10.586Z,101100.69
2022-08-03T15:33:42.783Z,101095.31
2022-08-03T15:36:10.979Z,101101.28
2022-08-03T15:38:39.024Z,101100.28
2022-08-03T15:41:08.753Z,101109.00
2022-08-03T15:43:41.908Z,101101.19
2022-08-03T15:46:29.241Z,101101.28
2022-08-03T15:48:57.734Z,101108.94
2022-08-03T15:51:25.780Z,101097.25
2022-08-03T15:53:53.793Z,101103.16
2022-08-03T15:56:21.840Z,101094.47
2022-08-03T15:59:11.422Z,101092.38
2022-08-03T16:01:42.830Z,101093.91
2022-08-03T16:04:10.924Z,101097.44
2022-08-03T16:06:42.150Z,101102.47
2022-08-03T16:09:23.574Z,101082.44
2022-08-03T16:12:00.652Z,101087.75
2022-08-03T16:14:34.415Z,101089.63
2022-08-03T16:17:11.035Z,101091.50
2022-08-03T16:19:39.086Z,101094.25
2022-08-03T16:22:08.219Z,101101.66
2022-08-03T16:24:37.854Z,101099.84
2022-08-03T16:27:17.223Z,101097.78
2022-08-03T16:29:55.523Z,101093.88
2022-08-03T16:32:25.026Z,101095.72
2022-08-03T16:34:53.041Z,101093.16
2022-08-03T16:37:39.821Z,101092.34
2022-08-03T16:40:19.212Z,101092.34
2022-08-03T16:42:48.019Z,101092.38
2022-08-03T16:45:16.228Z,101081.78
2022-08-03T16:48:01.737Z,101081.47
2022-08-03T16:50:35.974Z,101086.25
2022-08-03T16:53:09.992Z,101084.63
2022-08-03T16:55:51.831Z,101085.59
2022-08-03T16:58:34.790Z,101079.69
2022-08-03T17:01:22.413Z,101091.94
2022-08-03T17:04:01.971Z,101099.69
2022-08-03T17:06:33.834Z,101090.13
2022-08-03T17:09:03.219Z,101096.38
2022-08-03T17:11:32.134Z,101095.09
2022-08-03T17:14:01.329Z,101091.91
2022-08-03T17:16:31.628Z,101097.56
2022-08-03T17:19:05.358Z,101087.25
2022-08-03T17:21:39.130Z,101085.59
2022-08-03T17:24:12.465Z,101088.31
2022-08-03T17:26:44.740Z,101088.31
2022-08-03T17:29:14.984Z,101093.75
2022-08-03T17:31:49.128Z,101094.41
2022-08-03T17:34:19.988Z,101097.06
2022-08-03T17:37:05.773Z,101089.41
2022-08-03T17:39:58.825Z,101093.66
2022-08-03T17:42:29.444Z,101091.53
2022-08-03T17:45:01.690Z,101095.13
2022-08-03T17:47:42.881Z,101089.38
2022-08-03T17:50:24.518Z,101096.97
2022-08-03T17:52:58.686Z,101094.31
2022-08-03T17:55:58.553Z,101102.84
2022-08-03T17:58:23.660Z,101106.56
2022-08-03T18:02:00.219Z,101103.69
2022-08-03T18:04:11.032Z,101110.69
2022-08-03T18:06:55.865Z,101100.13
2022-08-03T18:10:06.793Z,101104.13
2022-08-03T18:12:18.023Z,101104.00
2022-08-03T18:14:57.554Z,101111.09
2022-08-03T18:17:55.583Z,101107.31
2022-08-03T18:20:33.189Z,101108.06
2022-08-03T18:23:08.360Z,101107.16
2022-08-03T18:25:45.632Z,101105.06
2022-08-03T18:28:18.491Z,101114.44
2022-08-03T18:34:17.949Z,101121.75
2022-08-03T18:36:30.548Z,101118.31
2022-08-03T18:39:00.591Z,101125.81
2022-08-03T18:41:32.943Z,101124.69
2022-08-03T18:44:07.298Z,101133.22
2022-08-03T18:46:49.011Z,101132.53
2022-08-03T18:49:24.784Z,101136.56
2022-08-03T18:52:03.516Z,101143.50
2022-08-03T18:54:45.676Z,101146.75
2022-08-03T18:57:35.289Z,101140.81
2022-08-03T19:00:12.236Z,101143.22
2022-08-03T19:02:48.868Z,101152.63
2022-08-03T19:05:19.624Z,101155.22
2022-08-03T19:07:57.979Z,101159.28
2022-08-03T19:10:32.462Z,101156.94
2022-08-03T19:13:11.306Z,101170.25
2022-08-03T19:15:51.039Z,101164.38
2022-08-03T19:18:22.060Z,101173.31
2022-08-03T19:20:53.206Z,101176.69
2022-08-03T19:23:24.763Z,101184.19
2022-08-03T19:25:54.623Z,101180.09
2022-08-03T19:28:29.796Z,101184.25
2022-08-03T19:30:58.513Z,101177.13
2022-08-03T19:33:29.919Z,101185.72
2022-08-03T19:35:58.620Z,101182.41
2022-08-03T19:38:29.854Z,101179.47
2022-08-03T19:41:02.476Z,101186.91
2022-08-03T19:43:52.809Z,101181.97
2022-08-03T19:46:27.620Z,101179.34
2022-08-03T19:49:02.064Z,101180.53
2022-08-03T19:52:01.406Z,101179.31
2022-08-03T19:54:29.896Z,101191.81
2022-08-03T19:57:02.315Z,101191.13
2022-08-03T19:59:30.946Z,101190.94
2022-08-03T20:01:58.967Z,101195.00
2022-08-03T20:04:26.970Z,101197.78
2022-08-03T20:06:57.274Z,101199.09
2022-08-03T20:09:25.574Z,101196.63
2022-08-03T20:11:59.023Z,101184.25
2022-08-03T20:14:28.731Z,101182.25
2022-08-03T20:16:57.311Z,101190.91
2022-08-03T20:19:25.361Z,101188.97
2022-08-03T20:22:00.983Z,101175.78
2022-08-03T20:24:31.772Z,101183.44
2022-08-03T20:27:01.419Z,101189.13
2022-08-03T20:30:05.387Z,101184.94
2022-08-03T20:32:24.764Z,101194.31
2022-08-03T20:34:53.354Z,101194.75
2022-08-03T20:37:21.468Z,101197.91
2022-08-03T20:39:49.939Z,101199.53
2022-08-03T20:42:21.801Z,101199.41
2022-08-03T20:45:06.026Z,101203.44
2022-08-03T20:47:50.671Z,101209.03
2022-08-03T20:50:22.162Z,101209.94
2022-08-03T20:52:50.972Z,101210.63
2022-08-03T20:55:20.303Z,101216.94
2022-08-03T20:58:08.163Z,101211.59
2022-08-03T21:00:37.791Z,101208.81
2022-08-03T21:03:06.811Z,101208.69
2022-08-03T21:08:28.138Z,101205.09
2022-08-03T21:10:59.114Z,101206.13
2022-08-03T21:12:58.148Z,101122.56
2022-08-03T21:13:08.028Z,101206.78
2022-08-03T21:13:33.221Z,101216.06
2022-08-03T21:16:14.262Z,101215.66
2022-08-03T21:18:47.001Z,101218.00
2022-08-03T21:21:19.006Z,101216.69
2022-08-03T21:23:53.667Z,101217.09
2022-08-03T21:26:24.493Z,101211.88
2022-08-03T21:28:54.228Z,101222.31
2022-08-03T21:31:26.523Z,101211.91
2022-08-03T21:33:57.908Z,101207.97
2022-08-03T21:36:27.951Z,101215.09
2022-08-03T21:38:57.499Z,101214.91
2022-08-03T21:41:26.571Z,101210.13
2022-08-03T21:44:03.041Z,101219.47
2022-08-03T21:46:38.681Z,101207.78
2022-08-03T21:50:04.749Z,101207.44
2022-08-03T21:52:00.773Z,101223.81
2022-08-03T21:54:34.397Z,101218.06
2022-08-03T21:57:05.580Z,101204.34
2022-08-03T21:59:37.691Z,101210.19
2022-08-03T22:02:20.839Z,101221.47
2022-08-03T22:04:57.205Z,101217.84
2022-08-03T22:07:26.374Z,101221.69
2022-08-03T22:09:55.321Z,101215.91
2022-08-03T22:12:32.362Z,101213.94
2022-08-03T22:15:02.401Z,101209.88
2022-08-03T22:17:55.541Z,101217.56
2022-08-03T22:20:22.542Z,101213.38
2022-08-03T22:22:55.153Z,101220.19
2022-08-03T22:25:29.035Z,101207.66
2022-08-03T22:27:59.080Z,101218.06
2022-08-03T22:30:27.403Z,101217.44
2022-08-03T22:32:57.717Z,101226.59
2022-08-03T22:35:27.293Z,101210.59
2022-08-03T22:37:56.142Z,101222.97
2022-08-03T22:40:24.243Z,101216.38
2022-08-03T22:42:53.478Z,101219.78
2022-08-03T22:46:07.771Z,101229.13
2022-08-03T22:48:12.527Z,101224.22
2022-08-03T22:50:40.777Z,101220.00
2022-08-03T22:53:09.035Z,101216.81
2022-08-03T22:55:37.875Z,101223.53
2022-08-03T22:58:05.972Z,101215.88
2022-08-03T23:00:34.284Z,101223.31
2022-08-03T23:03:03.697Z,101225.31
2022-08-03T23:06:01.866Z,101219.38
2022-08-03T23:08:27.447Z,101211.34
2022-08-03T23:10:57.946Z,101210.94
2022-08-03T23:13:34.353Z,101207.53
2022-08-03T23:16:02.851Z,101204.97
2022-08-03T23:18:43.463Z,101223.72
2022-08-03T23:21:15.240Z,101215.66
2022-08-03T23:23:44.163Z,101211.09
2022-08-03T23:26:14.292Z,101209.88
2022-08-03T23:28:43.411Z,101202.66
2022-08-03T23:31:11.801Z,101212.94
2022-08-03T23:33:40.655Z,101212.31
2022-08-03T23:36:30.397Z,101214.47
2022-08-03T23:39:00.300Z,101205.66
2022-08-03T23:41:28.729Z,101201.69
2022-08-03T23:43:57.501Z,101199.53
2022-08-03T23:46:27.474Z,101202.13
2022-08-03T23:48:56.654Z,101200.63
2022-08-03T23:51:44.879Z,101199.56
2022-08-03T23:54:30.321Z,101206.94
2022-08-03T23:57:04.783Z,101197.75
2022-08-03T23:59:39.710Z,101196.28
